Terminal Aerodrome Forecast
Issued by NWS Louisville, KY

Home | Current Version | Previous Version | Text Only | Print | Product List | Glossary On
Versions: 1 2 3 4 5 6 7 8 9 10 11 12 13 14 15 16 17
000
FTUS43 KLMK 191700
TAFBWG
TAF
KBWG 191731Z 1918/2018 22012G18KT P6SM VCSH SCT008 BKN021
     FM192100 23013G22KT P6SM VCTS BKN021CB
     FM200100 22009KT P6SM VCSH BKN030
     FM201300 25012G18KT P6SM VCSH BKN015=

USA.gov is the U.S. government's official web portal to all federal, state and local government web resources and services.